Old Picacho, New Mexico
Current Conditions -  °F | °C
As of 2:35 AM on Monday 20 Oct 2014 (Local Time) from KLRU Reporting Station
Broken Clouds Broken Clouds  
Wind Chill: 56°   Ceiling: 12000
Heat Index: 56°   Visibility: 10mi
Dew Point: 54°   Wind: 8mph
Humidity: 92%   Direction: 20°NNE
Pressure: 30.11"   Gusts: NA
Location:  32.3074°N, 106.837°W
Report Text: KLRU 200835Z AUTO 02007KT 10SM SCT075 SCT085 BKN120 13/12 A3011 RMK AO2 P0001 T01330120 PWINO
Loading
Personal Weather Stations






























Interactive Weather Map
Tropical Storm Tracking
New forecast layout! Learn more

10-Day Weather Forecast

Advertisements
Track Severe Weather on mobile